sensor_id;sensor_type;location;lat;lon;timestamp;temperature;humidity
53776;DHT22;44276;49.534;6.378;2023-12-22T00:01:51;8.00;99.90
53776;DHT22;44276;49.534;6.378;2023-12-22T00:04:19;8.20;99.90
53776;DHT22;44276;49.534;6.378;2023-12-22T00:06:47;8.10;99.90
53776;DHT22;44276;49.534;6.378;2023-12-22T00:09:15;7.90;99.90
53776;DHT22;44276;49.534;6.378;2023-12-22T00:11:43;7.90;99.90
53776;DHT22;44276;49.534;6.378;2023-12-22T00:14:12;7.90;99.90
53776;DHT22;44276;49.534;6.378;2023-12-22T00:16:40;7.80;99.90
53776;DHT22;44276;49.534;6.378;2023-12-22T00:19:09;7.70;99.90
53776;DHT22;44276;49.534;6.378;2023-12-22T00:21:37;7.70;99.90
53776;DHT22;44276;49.534;6.378;2023-12-22T00:24:06;7.80;99.90
53776;DHT22;44276;49.534;6.378;2023-12-22T00:26:34;8.00;99.90
53776;DHT22;44276;49.534;6.378;2023-12-22T00:29:02;8.20;99.90
53776;DHT22;44276;49.534;6.378;2023-12-22T00:31:31;8.30;99.90
53776;DHT22;44276;49.534;6.378;2023-12-22T00:33:59;8.30;99.90
53776;DHT22;44276;49.534;6.378;2023-12-22T00:36:29;8.30;99.90
53776;DHT22;44276;49.534;6.378;2023-12-22T00:38:57;8.40;99.90
53776;DHT22;44276;49.534;6.378;2023-12-22T00:41:25;8.40;99.90
53776;DHT22;44276;49.534;6.378;2023-12-22T00:43:53;8.50;99.90
53776;DHT22;44276;49.534;6.378;2023-12-22T00:46:22;8.40;99.90
53776;DHT22;44276;49.534;6.378;2023-12-22T00:48:50;8.30;99.90
53776;DHT22;44276;49.534;6.378;2023-12-22T00:51:18;8.40;99.90
53776;DHT22;44276;49.534;6.378;2023-12-22T00:53:47;8.30;99.90
53776;DHT22;44276;49.534;6.378;2023-12-22T00:56:16;8.30;99.90
53776;DHT22;44276;49.534;6.378;2023-12-22T00:58:44;8.50;99.90
53776;DHT22;44276;49.534;6.378;2023-12-22T01:01:23;8.60;99.90
53776;DHT22;44276;49.534;6.378;2023-12-22T01:03:53;8.70;99.90
53776;DHT22;44276;49.534;6.378;2023-12-22T01:06:21;8.60;99.90
53776;DHT22;44276;49.534;6.378;2023-12-22T01:08:55;8.50;99.90
53776;DHT22;44276;49.534;6.378;2023-12-22T01:11:23;8.40;99.90
53776;DHT22;44276;49.534;6.378;2023-12-22T01:13:51;8.50;99.90
53776;DHT22;44276;49.534;6.378;2023-12-22T01:16:20;8.50;99.90
53776;DHT22;44276;49.534;6.378;2023-12-22T01:18:49;8.70;99.90
53776;DHT22;44276;49.534;6.378;2023-12-22T01:21:20;8.70;99.90
53776;DHT22;44276;49.534;6.378;2023-12-22T01:23:48;8.70;99.90
53776;DHT22;44276;49.534;6.378;2023-12-22T01:26:18;8.60;99.90
53776;DHT22;44276;49.534;6.378;2023-12-22T01:28:46;8.50;99.90
53776;DHT22;44276;49.534;6.378;2023-12-22T01:31:15;8.40;99.90
53776;DHT22;44276;49.534;6.378;2023-12-22T01:33:43;8.30;99.90
53776;DHT22;44276;49.534;6.378;2023-12-22T01:36:11;8.20;99.90
53776;DHT22;44276;49.534;6.378;2023-12-22T01:38:39;8.20;99.90
53776;DHT22;44276;49.534;6.378;2023-12-22T01:41:07;8.20;99.90
53776;DHT22;44276;49.534;6.378;2023-12-22T01:43:37;8.20;99.90
53776;DHT22;44276;49.534;6.378;2023-12-22T01:46:06;8.30;99.90
53776;DHT22;44276;49.534;6.378;2023-12-22T01:48:35;8.40;99.90
53776;DHT22;44276;49.534;6.378;2023-12-22T01:51:04;8.50;99.90
53776;DHT22;44276;49.534;6.378;2023-12-22T01:53:35;8.60;99.90
53776;DHT22;44276;49.534;6.378;2023-12-22T01:56:06;8.60;99.90
53776;DHT22;44276;49.534;6.378;2023-12-22T01:58:37;8.60;99.90
53776;DHT22;44276;49.534;6.378;2023-12-22T02:01:06;8.60;99.90
53776;DHT22;44276;49.534;6.378;2023-12-22T02:03:35;8.60;99.90
53776;DHT22;44276;49.534;6.378;2023-12-22T02:06:05;8.70;99.90
53776;DHT22;44276;49.534;6.378;2023-12-22T02:08:33;8.70;99.90
53776;DHT22;44276;49.534;6.378;2023-12-22T02:11:03;8.80;99.90
53776;DHT22;44276;49.534;6.378;2023-12-22T02:13:31;8.80;99.90
53776;DHT22;44276;49.534;6.378;2023-12-22T02:16:05;8.80;99.90
53776;DHT22;44276;49.534;6.378;2023-12-22T02:18:43;8.90;99.90
53776;DHT22;44276;49.534;6.378;2023-12-22T02:21:14;8.70;99.90
53776;DHT22;44276;49.534;6.378;2023-12-22T02:23:46;8.50;99.90
53776;DHT22;44276;49.534;6.378;2023-12-22T02:26:27;8.20;99.90
53776;DHT22;44276;49.534;6.378;2023-12-22T02:29:01;7.80;99.90
53776;DHT22;44276;49.534;6.378;2023-12-22T02:31:35;7.60;99.90
53776;DHT22;44276;49.534;6.378;2023-12-22T02:34:08;7.40;99.90
53776;DHT22;44276;49.534;6.378;2023-12-22T02:36:41;7.30;99.90
53776;DHT22;44276;49.534;6.378;2023-12-22T02:39:14;7.30;99.90
53776;DHT22;44276;49.534;6.378;2023-12-22T02:41:43;7.20;99.90
53776;DHT22;44276;49.534;6.378;2023-12-22T02:44:12;7.30;99.90
53776;DHT22;44276;49.534;6.378;2023-12-22T02:46:40;7.20;99.90
53776;DHT22;44276;49.534;6.378;2023-12-22T02:49:10;7.20;99.90
53776;DHT22;44276;49.534;6.378;2023-12-22T02:51:40;7.00;99.90
53776;DHT22;44276;49.534;6.378;2023-12-22T02:54:08;6.90;99.90
53776;DHT22;44276;49.534;6.378;2023-12-22T02:56:38;6.70;99.90
53776;DHT22;44276;49.534;6.378;2023-12-22T02:59:06;6.70;99.90
53776;DHT22;44276;49.534;6.378;2023-12-22T03:01:36;6.80;99.90
53776;DHT22;44276;49.534;6.378;2023-12-22T03:04:04;6.70;99.90
53776;DHT22;44276;49.534;6.378;2023-12-22T03:06:32;6.90;99.90
53776;DHT22;44276;49.534;6.378;2023-12-22T03:09:00;7.10;99.90
53776;DHT22;44276;49.534;6.378;2023-12-22T03:11:29;7.40;99.90
53776;DHT22;44276;49.534;6.378;2023-12-22T03:13:58;7.50;99.90
53776;DHT22;44276;49.534;6.378;2023-12-22T03:16:26;7.50;99.90
53776;DHT22;44276;49.534;6.378;2023-12-22T03:18:55;7.60;99.90
53776;DHT22;44276;49.534;6.378;2023-12-22T03:21:23;7.70;99.90
53776;DHT22;44276;49.534;6.378;2023-12-22T03:23:51;7.80;99.90
53776;DHT22;44276;49.534;6.378;2023-12-22T03:26:19;7.90;99.90
53776;DHT22;44276;49.534;6.378;2023-12-22T03:28:47;7.90;99.90
53776;DHT22;44276;49.534;6.378;2023-12-22T03:31:16;8.10;99.90
53776;DHT22;44276;49.534;6.378;2023-12-22T03:33:45;8.00;99.90
53776;DHT22;44276;49.534;6.378;2023-12-22T03:36:13;8.00;99.90
53776;DHT22;44276;49.534;6.378;2023-12-22T03:38:41;8.00;99.90
53776;DHT22;44276;49.534;6.378;2023-12-22T03:41:09;8.00;99.90
53776;DHT22;44276;49.534;6.378;2023-12-22T03:43:37;8.10;99.90
53776;DHT22;44276;49.534;6.378;2023-12-22T03:46:06;8.20;99.90
53776;DHT22;44276;49.534;6.378;2023-12-22T03:48:35;8.30;99.90
53776;DHT22;44276;49.534;6.378;2023-12-22T03:51:04;8.30;99.90
53776;DHT22;44276;49.534;6.378;2023-12-22T03:53:32;8.30;99.90
53776;DHT22;44276;49.534;6.378;2023-12-22T03:56:00;8.40;99.90
53776;DHT22;44276;49.534;6.378;2023-12-22T03:58:28;8.40;99.90
53776;DHT22;44276;49.534;6.378;2023-12-22T04:00:57;8.30;99.90
53776;DHT22;44276;49.534;6.378;2023-12-22T04:03:25;8.30;99.90
53776;DHT22;44276;49.534;6.378;2023-12-22T04:05:55;8.20;99.90
53776;DHT22;44276;49.534;6.378;2023-12-22T04:08:23;8.10;99.90
53776;DHT22;44276;49.534;6.378;2023-12-22T04:10:51;8.10;99.90
53776;DHT22;44276;49.534;6.378;2023-12-22T04:13:19;8.10;99.90
53776;DHT22;44276;49.534;6.378;2023-12-22T04:15:47;8.10;99.90
53776;DHT22;44276;49.534;6.378;2023-12-22T04:18:15;8.10;99.90
53776;DHT22;44276;49.534;6.378;2023-12-22T04:20:44;8.10;99.90
53776;DHT22;44276;49.534;6.378;2023-12-22T04:23:13;8.30;99.90
53776;DHT22;44276;49.534;6.378;2023-12-22T04:25:41;8.30;99.90
53776;DHT22;44276;49.534;6.378;2023-12-22T04:28:10;8.20;99.90
53776;DHT22;44276;49.534;6.378;2023-12-22T04:30:38;8.30;99.90
53776;DHT22;44276;49.534;6.378;2023-12-22T04:33:06;8.30;99.90
53776;DHT22;44276;49.534;6.378;2023-12-22T04:35:35;8.30;99.90
53776;DHT22;44276;49.534;6.378;2023-12-22T04:38:03;8.30;99.90
53776;DHT22;44276;49.534;6.378;2023-12-22T04:40:33;8.30;99.90
53776;DHT22;44276;49.534;6.378;2023-12-22T04:43:01;8.40;99.90
53776;DHT22;44276;49.534;6.378;2023-12-22T04:45:29;8.40;99.90
53776;DHT22;44276;49.534;6.378;2023-12-22T04:47:57;8.30;99.90
53776;DHT22;44276;49.534;6.378;2023-12-22T04:50:25;8.30;99.90
53776;DHT22;44276;49.534;6.378;2023-12-22T04:52:54;8.30;99.90
53776;DHT22;44276;49.534;6.378;2023-12-22T04:55:22;8.20;99.90
53776;DHT22;44276;49.534;6.378;2023-12-22T04:57:51;8.10;99.90
53776;DHT22;44276;49.534;6.378;2023-12-22T05:00:19;8.00;99.90
53776;DHT22;44276;49.534;6.378;2023-12-22T05:02:47;7.80;99.90
53776;DHT22;44276;49.534;6.378;2023-12-22T05:05:15;7.60;99.90
53776;DHT22;44276;49.534;6.378;2023-12-22T05:07:43;7.60;99.90
53776;DHT22;44276;49.534;6.378;2023-12-22T05:10:12;7.50;99.90
53776;DHT22;44276;49.534;6.378;2023-12-22T05:12:40;7.50;99.90
53776;DHT22;44276;49.534;6.378;2023-12-22T05:15:10;7.50;99.90
53776;DHT22;44276;49.534;6.378;2023-12-22T05:17:38;7.40;99.90
53776;DHT22;44276;49.534;6.378;2023-12-22T05:20:08;7.40;99.90
53776;DHT22;44276;49.534;6.378;2023-12-22T05:22:37;7.40;99.90
53776;DHT22;44276;49.534;6.378;2023-12-22T05:25:06;7.40;99.90
53776;DHT22;44276;49.534;6.378;2023-12-22T05:27:37;7.30;99.90
53776;DHT22;44276;49.534;6.378;2023-12-22T05:30:06;7.30;99.90
53776;DHT22;44276;49.534;6.378;2023-12-22T05:32:36;7.20;99.90
53776;DHT22;44276;49.534;6.378;2023-12-22T05:35:05;7.20;99.90
53776;DHT22;44276;49.534;6.378;2023-12-22T05:37:34;7.30;99.90
53776;DHT22;44276;49.534;6.378;2023-12-22T05:40:02;7.30;99.90
53776;DHT22;44276;49.534;6.378;2023-12-22T05:42:33;7.20;99.90
53776;DHT22;44276;49.534;6.378;2023-12-22T05:45:01;7.30;99.90
53776;DHT22;44276;49.534;6.378;2023-12-22T05:47:30;7.30;99.90
53776;DHT22;44276;49.534;6.378;2023-12-22T05:49:59;7.30;99.90
53776;DHT22;44276;49.534;6.378;2023-12-22T05:52:28;7.30;99.90
53776;DHT22;44276;49.534;6.378;2023-12-22T05:54:56;7.30;99.90
53776;DHT22;44276;49.534;6.378;2023-12-22T05:57:25;7.30;99.90
53776;DHT22;44276;49.534;6.378;2023-12-22T05:59:53;7.30;99.90
53776;DHT22;44276;49.534;6.378;2023-12-22T06:02:21;7.30;99.90
53776;DHT22;44276;49.534;6.378;2023-12-22T06:04:49;7.40;99.90
53776;DHT22;44276;49.534;6.378;2023-12-22T06:07:19;7.40;99.90
53776;DHT22;44276;49.534;6.378;2023-12-22T06:09:47;7.40;99.90
53776;DHT22;44276;49.534;6.378;2023-12-22T06:12:16;7.40;99.90
53776;DHT22;44276;49.534;6.378;2023-12-22T06:14:44;7.40;99.90
53776;DHT22;44276;49.534;6.378;2023-12-22T06:17:12;7.40;99.90
53776;DHT22;44276;49.534;6.378;2023-12-22T06:19:40;7.40;99.90
53776;DHT22;44276;49.534;6.378;2023-12-22T06:22:08;7.50;99.90
53776;DHT22;44276;49.534;6.378;2023-12-22T06:24:37;7.60;99.90
53776;DHT22;44276;49.534;6.378;2023-12-22T06:27:05;7.60;99.90
53776;DHT22;44276;49.534;6.378;2023-12-22T06:29:35;7.70;99.90
53776;DHT22;44276;49.534;6.378;2023-12-22T06:32:04;7.70;99.90
53776;DHT22;44276;49.534;6.378;2023-12-22T06:34:34;7.80;99.90
53776;DHT22;44276;49.534;6.378;2023-12-22T06:37:02;7.90;99.90
53776;DHT22;44276;49.534;6.378;2023-12-22T06:39:31;7.90;99.90
53776;DHT22;44276;49.534;6.378;2023-12-22T06:42:00;8.00;99.90
53776;DHT22;44276;49.534;6.378;2023-12-22T06:44:28;8.10;99.90
53776;DHT22;44276;49.534;6.378;2023-12-22T06:46:58;8.10;99.90
53776;DHT22;44276;49.534;6.378;2023-12-22T06:49:26;8.20;99.90
53776;DHT22;44276;49.534;6.378;2023-12-22T06:51:54;8.20;99.90
53776;DHT22;44276;49.534;6.378;2023-12-22T06:54:22;8.30;99.90
53776;DHT22;44276;49.534;6.378;2023-12-22T06:56:51;8.40;99.90
53776;DHT22;44276;49.534;6.378;2023-12-22T06:59:20;8.30;99.90
53776;DHT22;44276;49.534;6.378;2023-12-22T07:01:49;8.40;99.90
53776;DHT22;44276;49.534;6.378;2023-12-22T07:04:33;8.40;99.90
53776;DHT22;44276;49.534;6.378;2023-12-22T07:07:01;8.40;99.90
53776;DHT22;44276;49.534;6.378;2023-12-22T07:09:33;8.50;99.90
53776;DHT22;44276;49.534;6.378;2023-12-22T07:12:01;8.50;99.90
53776;DHT22;44276;49.534;6.378;2023-12-22T07:14:32;8.40;99.90
53776;DHT22;44276;49.534;6.378;2023-12-22T07:17:01;8.40;99.90
53776;DHT22;44276;49.534;6.378;2023-12-22T07:19:29;8.40;99.90
53776;DHT22;44276;49.534;6.378;2023-12-22T07:21:58;8.50;99.90
53776;DHT22;44276;49.534;6.378;2023-12-22T07:24:26;8.50;99.90
53776;DHT22;44276;49.534;6.378;2023-12-22T07:26:55;8.50;99.90
53776;DHT22;44276;49.534;6.378;2023-12-22T07:29:23;8.40;99.90
53776;DHT22;44276;49.534;6.378;2023-12-22T07:31:53;8.40;99.90
53776;DHT22;44276;49.534;6.378;2023-12-22T07:34:21;8.40;99.90
53776;DHT22;44276;49.534;6.378;2023-12-22T07:36:49;8.30;99.90
53776;DHT22;44276;49.534;6.378;2023-12-22T07:39:32;8.20;99.90
53776;DHT22;44276;49.534;6.378;2023-12-22T07:42:02;8.10;99.90
53776;DHT22;44276;49.534;6.378;2023-12-22T07:44:31;8.10;99.90
53776;DHT22;44276;49.534;6.378;2023-12-22T07:47:01;8.30;99.90
53776;DHT22;44276;49.534;6.378;2023-12-22T07:49:30;8.20;99.90
53776;DHT22;44276;49.534;6.378;2023-12-22T07:51:59;8.30;99.90
53776;DHT22;44276;49.534;6.378;2023-12-22T07:54:29;8.40;99.90
53776;DHT22;44276;49.534;6.378;2023-12-22T07:56:58;8.40;99.90
53776;DHT22;44276;49.534;6.378;2023-12-22T07:59:26;8.40;99.90
53776;DHT22;44276;49.534;6.378;2023-12-22T08:01:58;8.40;99.90
53776;DHT22;44276;49.534;6.378;2023-12-22T08:04:28;8.60;99.90
53776;DHT22;44276;49.534;6.378;2023-12-22T08:06:56;8.50;99.90
53776;DHT22;44276;49.534;6.378;2023-12-22T08:09:24;8.50;99.90
53776;DHT22;44276;49.534;6.378;2023-12-22T08:11:53;8.60;99.90
53776;DHT22;44276;49.534;6.378;2023-12-22T08:14:23;8.70;99.90
53776;DHT22;44276;49.534;6.378;2023-12-22T08:16:51;8.70;99.90
53776;DHT22;44276;49.534;6.378;2023-12-22T08:19:20;8.80;99.90
53776;DHT22;44276;49.534;6.378;2023-12-22T08:21:52;8.80;99.90
53776;DHT22;44276;49.534;6.378;2023-12-22T08:24:21;8.90;99.90
53776;DHT22;44276;49.534;6.378;2023-12-22T08:26:50;8.90;99.90
53776;DHT22;44276;49.534;6.378;2023-12-22T08:29:19;8.90;99.90
53776;DHT22;44276;49.534;6.378;2023-12-22T08:31:47;9.00;99.90
53776;DHT22;44276;49.534;6.378;2023-12-22T08:34:15;8.90;99.90
53776;DHT22;44276;49.534;6.378;2023-12-22T08:36:43;8.90;99.90
53776;DHT22;44276;49.534;6.378;2023-12-22T08:39:13;8.90;99.90
53776;DHT22;44276;49.534;6.378;2023-12-22T08:41:42;9.00;99.90
53776;DHT22;44276;49.534;6.378;2023-12-22T08:44:11;9.10;99.90
53776;DHT22;44276;49.534;6.378;2023-12-22T08:46:41;9.10;99.90
53776;DHT22;44276;49.534;6.378;2023-12-22T08:49:10;9.20;99.90
53776;DHT22;44276;49.534;6.378;2023-12-22T08:51:38;9.30;99.90
53776;DHT22;44276;49.534;6.378;2023-12-22T08:54:06;9.40;99.90
53776;DHT22;44276;49.534;6.378;2023-12-22T08:56:36;9.40;99.90
53776;DHT22;44276;49.534;6.378;2023-12-22T08:59:04;9.40;99.90
53776;DHT22;44276;49.534;6.378;2023-12-22T09:01:32;9.40;99.90
53776;DHT22;44276;49.534;6.378;2023-12-22T09:04:02;9.40;99.90
53776;DHT22;44276;49.534;6.378;2023-12-22T09:06:35;9.40;99.90
53776;DHT22;44276;49.534;6.378;2023-12-22T09:09:03;9.40;99.90
53776;DHT22;44276;49.534;6.378;2023-12-22T09:11:31;9.40;99.90
53776;DHT22;44276;49.534;6.378;2023-12-22T09:14:01;9.40;99.90
53776;DHT22;44276;49.534;6.378;2023-12-22T09:16:29;9.30;99.90
53776;DHT22;44276;49.534;6.378;2023-12-22T09:18:57;9.30;99.90
53776;DHT22;44276;49.534;6.378;2023-12-22T09:21:25;9.30;99.90
53776;DHT22;44276;49.534;6.378;2023-12-22T09:23:53;9.20;99.90
53776;DHT22;44276;49.534;6.378;2023-12-22T09:26:21;9.20;99.90
53776;DHT22;44276;49.534;6.378;2023-12-22T09:28:49;9.10;99.90
53776;DHT22;44276;49.534;6.378;2023-12-22T09:31:19;9.10;99.90
53776;DHT22;44276;49.534;6.378;2023-12-22T09:33:49;8.90;99.90
53776;DHT22;44276;49.534;6.378;2023-12-22T09:36:17;8.80;99.90
53776;DHT22;44276;49.534;6.378;2023-12-22T09:38:45;8.70;99.90
53776;DHT22;44276;49.534;6.378;2023-12-22T09:41:13;8.60;99.90
53776;DHT22;44276;49.534;6.378;2023-12-22T09:43:42;8.60;99.90
53776;DHT22;44276;49.534;6.378;2023-12-22T09:46:20;8.60;99.90
53776;DHT22;44276;49.534;6.378;2023-12-22T09:48:49;8.60;99.90
53776;DHT22;44276;49.534;6.378;2023-12-22T09:51:20;8.70;99.90
53776;DHT22;44276;49.534;6.378;2023-12-22T09:53:49;8.70;99.90
53776;DHT22;44276;49.534;6.378;2023-12-22T09:56:19;8.70;99.90
53776;DHT22;44276;49.534;6.378;2023-12-22T09:58:49;8.80;99.90
53776;DHT22;44276;49.534;6.378;2023-12-22T10:01:23;8.80;99.90
53776;DHT22;44276;49.534;6.378;2023-12-22T10:03:51;8.80;99.90
53776;DHT22;44276;49.534;6.378;2023-12-22T10:06:20;8.80;99.90
53776;DHT22;44276;49.534;6.378;2023-12-22T10:08:49;8.80;99.90
53776;DHT22;44276;49.534;6.378;2023-12-22T10:11:18;8.90;99.90
53776;DHT22;44276;49.534;6.378;2023-12-22T10:13:50;8.90;99.90
53776;DHT22;44276;49.534;6.378;2023-12-22T10:16:23;8.90;99.90
53776;DHT22;44276;49.534;6.378;2023-12-22T10:18:51;8.90;99.90
53776;DHT22;44276;49.534;6.378;2023-12-22T10:21:21;8.90;99.90
53776;DHT22;44276;49.534;6.378;2023-12-22T10:23:49;8.90;99.90
53776;DHT22;44276;49.534;6.378;2023-12-22T10:26:17;8.90;99.90
53776;DHT22;44276;49.534;6.378;2023-12-22T10:28:47;8.90;99.90
53776;DHT22;44276;49.534;6.378;2023-12-22T10:31:15;8.90;99.90
53776;DHT22;44276;49.534;6.378;2023-12-22T10:33:46;8.90;99.90
53776;DHT22;44276;49.534;6.378;2023-12-22T10:36:15;8.90;99.90
53776;DHT22;44276;49.534;6.378;2023-12-22T10:38:43;8.90;99.90
53776;DHT22;44276;49.534;6.378;2023-12-22T10:41:12;8.90;99.90
53776;DHT22;44276;49.534;6.378;2023-12-22T10:43:40;8.90;99.90
53776;DHT22;44276;49.534;6.378;2023-12-22T10:46:09;8.90;99.90
53776;DHT22;44276;49.534;6.378;2023-12-22T10:48:40;8.80;99.90
53776;DHT22;44276;49.534;6.378;2023-12-22T10:51:10;8.80;99.90
53776;DHT22;44276;49.534;6.378;2023-12-22T10:53:41;8.80;99.90
53776;DHT22;44276;49.534;6.378;2023-12-22T10:56:10;8.80;99.90
53776;DHT22;44276;49.534;6.378;2023-12-22T10:58:39;8.90;99.90
53776;DHT22;44276;49.534;6.378;2023-12-22T11:01:08;9.00;99.90
53776;DHT22;44276;49.534;6.378;2023-12-22T11:03:39;9.00;99.90
53776;DHT22;44276;49.534;6.378;2023-12-22T11:06:15;9.00;99.90
53776;DHT22;44276;49.534;6.378;2023-12-22T11:08:47;9.10;99.90
53776;DHT22;44276;49.534;6.378;2023-12-22T11:11:26;9.10;99.90
53776;DHT22;44276;49.534;6.378;2023-12-22T11:13:59;9.20;99.90
53776;DHT22;44276;49.534;6.378;2023-12-22T11:16:29;9.40;99.90
53776;DHT22;44276;49.534;6.378;2023-12-22T11:18:59;9.50;99.90
53776;DHT22;44276;49.534;6.378;2023-12-22T11:21:30;9.70;99.90
53776;DHT22;44276;49.534;6.378;2023-12-22T11:23:59;9.90;99.90
53776;DHT22;44276;49.534;6.378;2023-12-22T11:26:29;10.10;99.90
53776;DHT22;44276;49.534;6.378;2023-12-22T11:28:59;10.20;99.90
53776;DHT22;44276;49.534;6.378;2023-12-22T11:31:31;10.20;99.90
53776;DHT22;44276;49.534;6.378;2023-12-22T11:34:01;10.10;99.90
53776;DHT22;44276;49.534;6.378;2023-12-22T11:36:43;10.00;99.90
53776;DHT22;44276;49.534;6.378;2023-12-22T11:39:15;10.00;99.90
53776;DHT22;44276;49.534;6.378;2023-12-22T11:41:43;10.00;99.90
53776;DHT22;44276;49.534;6.378;2023-12-22T11:44:15;10.00;99.90
53776;DHT22;44276;49.534;6.378;2023-12-22T11:46:44;10.10;99.90
53776;DHT22;44276;49.534;6.378;2023-12-22T11:49:14;10.10;99.90
53776;DHT22;44276;49.534;6.378;2023-12-22T11:51:45;10.20;99.90
53776;DHT22;44276;49.534;6.378;2023-12-22T11:54:43;10.20;99.90
53776;DHT22;44276;49.534;6.378;2023-12-22T11:57:29;10.20;99.90
53776;DHT22;44276;49.534;6.378;2023-12-22T12:00:01;10.10;99.90
53776;DHT22;44276;49.534;6.378;2023-12-22T12:02:33;10.00;99.90
53776;DHT22;44276;49.534;6.378;2023-12-22T12:05:05;10.00;99.90
53776;DHT22;44276;49.534;6.378;2023-12-22T12:07:42;10.00;99.90
53776;DHT22;44276;49.534;6.378;2023-12-22T12:10:50;10.00;99.90
53776;DHT22;44276;49.534;6.378;2023-12-22T12:13:23;10.10;99.90
53776;DHT22;44276;49.534;6.378;2023-12-22T12:15:53;10.10;99.90
53776;DHT22;44276;49.534;6.378;2023-12-22T12:18:23;10.10;99.90
53776;DHT22;44276;49.534;6.378;2023-12-22T12:20:52;10.10;99.90
53776;DHT22;44276;49.534;6.378;2023-12-22T12:23:23;10.10;99.90
53776;DHT22;44276;49.534;6.378;2023-12-22T12:25:53;10.20;99.90
53776;DHT22;44276;49.534;6.378;2023-12-22T12:28:25;10.20;99.90
53776;DHT22;44276;49.534;6.378;2023-12-22T12:31:00;10.20;99.90
53776;DHT22;44276;49.534;6.378;2023-12-22T12:33:29;10.20;99.90
53776;DHT22;44276;49.534;6.378;2023-12-22T12:35:59;10.30;99.90
53776;DHT22;44276;49.534;6.378;2023-12-22T12:38:54;10.20;99.90
53776;DHT22;44276;49.534;6.378;2023-12-22T12:41:31;10.20;99.90
53776;DHT22;44276;49.534;6.378;2023-12-22T12:44:03;10.20;99.90
53776;DHT22;44276;49.534;6.378;2023-12-22T12:46:33;10.20;99.90
53776;DHT22;44276;49.534;6.378;2023-12-22T12:49:03;10.30;99.90
53776;DHT22;44276;49.534;6.378;2023-12-22T12:51:36;10.30;99.90
53776;DHT22;44276;49.534;6.378;2023-12-22T12:54:06;10.40;99.90
53776;DHT22;44276;49.534;6.378;2023-12-22T12:56:39;10.40;99.90
53776;DHT22;44276;49.534;6.378;2023-12-22T12:59:08;10.50;99.90
53776;DHT22;44276;49.534;6.378;2023-12-22T13:01:40;10.60;99.90
53776;DHT22;44276;49.534;6.378;2023-12-22T13:04:11;10.60;99.90
53776;DHT22;44276;49.534;6.378;2023-12-22T13:06:44;10.60;99.90
53776;DHT22;44276;49.534;6.378;2023-12-22T13:09:14;10.60;99.90
53776;DHT22;44276;49.534;6.378;2023-12-22T13:11:45;10.70;99.90
53776;DHT22;44276;49.534;6.378;2023-12-22T13:14:21;10.80;99.90
53776;DHT22;44276;49.534;6.378;2023-12-22T13:16:52;10.70;99.90
53776;DHT22;44276;49.534;6.378;2023-12-22T13:19:22;10.80;99.90
53776;DHT22;44276;49.534;6.378;2023-12-22T13:21:52;10.80;99.90
53776;DHT22;44276;49.534;6.378;2023-12-22T13:24:23;10.80;99.90
53776;DHT22;44276;49.534;6.378;2023-12-22T13:26:59;10.80;99.90
53776;DHT22;44276;49.534;6.378;2023-12-22T13:29:30;10.70;99.90
53776;DHT22;44276;49.534;6.378;2023-12-22T13:32:15;10.80;99.90
53776;DHT22;44276;49.534;6.378;2023-12-22T13:34:48;10.80;99.90
53776;DHT22;44276;49.534;6.378;2023-12-22T13:37:18;10.80;99.90
53776;DHT22;44276;49.534;6.378;2023-12-22T13:39:48;10.80;99.90
53776;DHT22;44276;49.534;6.378;2023-12-22T13:42:19;10.90;99.90
53776;DHT22;44276;49.534;6.378;2023-12-22T13:44:50;10.90;99.90
53776;DHT22;44276;49.534;6.378;2023-12-22T13:47:19;10.90;99.90
53776;DHT22;44276;49.534;6.378;2023-12-22T13:49:48;10.90;99.90
53776;DHT22;44276;49.534;6.378;2023-12-22T13:52:27;10.90;99.90
53776;DHT22;44276;49.534;6.378;2023-12-22T13:54:59;10.90;99.90
53776;DHT22;44276;49.534;6.378;2023-12-22T13:57:29;10.90;99.90
53776;DHT22;44276;49.534;6.378;2023-12-22T13:59:57;10.90;99.90
53776;DHT22;44276;49.534;6.378;2023-12-22T14:02:25;10.90;99.90
53776;DHT22;44276;49.534;6.378;2023-12-22T14:04:54;11.00;99.90
53776;DHT22;44276;49.534;6.378;2023-12-22T14:07:22;10.90;99.90
53776;DHT22;44276;49.534;6.378;2023-12-22T14:09:50;10.90;99.90
53776;DHT22;44276;49.534;6.378;2023-12-22T14:12:20;10.90;99.90
53776;DHT22;44276;49.534;6.378;2023-12-22T14:14:57;10.90;99.90
53776;DHT22;44276;49.534;6.378;2023-12-22T14:17:26;10.90;99.90
53776;DHT22;44276;49.534;6.378;2023-12-22T14:19:57;10.90;99.90
53776;DHT22;44276;49.534;6.378;2023-12-22T14:22:25;10.90;99.90
53776;DHT22;44276;49.534;6.378;2023-12-22T14:24:54;10.80;99.90
53776;DHT22;44276;49.534;6.378;2023-12-22T14:27:24;10.80;99.90
53776;DHT22;44276;49.534;6.378;2023-12-22T14:29:52;10.70;99.90
53776;DHT22;44276;49.534;6.378;2023-12-22T14:32:21;10.70;99.90
53776;DHT22;44276;49.534;6.378;2023-12-22T14:34:49;10.70;99.90
53776;DHT22;44276;49.534;6.378;2023-12-22T14:37:18;10.70;99.90
53776;DHT22;44276;49.534;6.378;2023-12-22T14:39:47;10.50;99.90
53776;DHT22;44276;49.534;6.378;2023-12-22T14:42:15;10.50;99.90
53776;DHT22;44276;49.534;6.378;2023-12-22T14:44:45;10.50;99.90
53776;DHT22;44276;49.534;6.378;2023-12-22T14:47:13;10.50;99.90
53776;DHT22;44276;49.534;6.378;2023-12-22T14:49:42;10.50;99.90
53776;DHT22;44276;49.534;6.378;2023-12-22T14:52:10;10.50;99.90
53776;DHT22;44276;49.534;6.378;2023-12-22T14:54:39;10.50;99.90
53776;DHT22;44276;49.534;6.378;2023-12-22T14:57:07;10.50;99.90
53776;DHT22;44276;49.534;6.378;2023-12-22T14:59:35;10.50;99.90
53776;DHT22;44276;49.534;6.378;2023-12-22T15:02:04;10.40;99.90
53776;DHT22;44276;49.534;6.378;2023-12-22T15:04:33;10.40;99.90
53776;DHT22;44276;49.534;6.378;2023-12-22T15:07:03;10.50;99.90
53776;DHT22;44276;49.534;6.378;2023-12-22T15:09:31;10.50;99.90
53776;DHT22;44276;49.534;6.378;2023-12-22T15:12:00;10.50;99.90
53776;DHT22;44276;49.534;6.378;2023-12-22T15:14:28;10.40;99.90
53776;DHT22;44276;49.534;6.378;2023-12-22T15:16:56;10.40;99.90
53776;DHT22;44276;49.534;6.378;2023-12-22T15:19:25;10.50;99.90
53776;DHT22;44276;49.534;6.378;2023-12-22T15:21:54;10.50;99.90
53776;DHT22;44276;49.534;6.378;2023-12-22T15:24:22;10.50;99.90
53776;DHT22;44276;49.534;6.378;2023-12-22T15:26:50;10.50;99.90
53776;DHT22;44276;49.534;6.378;2023-12-22T15:29:19;10.50;99.90
53776;DHT22;44276;49.534;6.378;2023-12-22T15:31:47;10.40;99.90
53776;DHT22;44276;49.534;6.378;2023-12-22T15:34:16;10.40;99.90
53776;DHT22;44276;49.534;6.378;2023-12-22T15:36:46;10.30;99.90
53776;DHT22;44276;49.534;6.378;2023-12-22T15:39:14;10.40;99.90
53776;DHT22;44276;49.534;6.378;2023-12-22T15:41:42;10.30;99.90
53776;DHT22;44276;49.534;6.378;2023-12-22T15:44:10;10.10;99.90
53776;DHT22;44276;49.534;6.378;2023-12-22T15:46:39;10.00;99.90
53776;DHT22;44276;49.534;6.378;2023-12-22T15:49:07;10.00;99.90
53776;DHT22;44276;49.534;6.378;2023-12-22T15:51:35;9.80;99.90
53776;DHT22;44276;49.534;6.378;2023-12-22T15:54:05;9.70;99.90
53776;DHT22;44276;49.534;6.378;2023-12-22T15:56:33;9.70;99.90
53776;DHT22;44276;49.534;6.378;2023-12-22T15:59:01;9.60;99.90